Time;durP1;ratioP1;P1;durP2;ratioP2;P2;SDS_P1;SDS_P2;PMS_P1;PMS_P2;Temp;Humidity;BMP_temperature;BMP_pressure;BME280_temperature;BME280_humidity;BME280_pressure;Samples;Min_cycle;Max_cycle;Signal;HPM_P1;HPM_P2
2022/03/09 00:01:23;;;;;;;8.65;4.63;;;;;;;0.57;66.91;100885.03;5059939;28;20100;-79
2022/03/09 00:03:48;;;;;;;8.35;4.40;;;;;;;0.50;67.27;100877.00;5059961;28;20112;-79
2022/03/09 00:06:14;;;;;;;6.97;4.10;;;;;;;0.54;66.76;100876.22;5060015;28;20031;-79
2022/03/09 00:08:39;;;;;;;7.65;4.45;;;;;;;0.54;66.45;100873.56;5059388;28;20024;-79
2022/03/09 00:11:04;;;;;;;9.90;5.15;;;;;;;0.63;66.12;100885.16;5058470;28;20072;-78
2022/03/09 00:13:29;;;;;;;9.00;4.63;;;;;;;0.62;65.55;100879.00;5059741;28;20078;-79
2022/03/09 00:15:55;;;;;;;8.95;3.95;;;;;;;0.60;65.86;100880.72;5060170;28;20074;-77
2022/03/09 00:18:20;;;;;;;6.93;4.00;;;;;;;0.63;65.82;100882.50;5059614;28;20474;-79
2022/03/09 00:20:45;;;;;;;7.15;3.85;;;;;;;0.67;65.75;100876.50;5058550;28;20029;-77
2022/03/09 00:23:11;;;;;;;7.00;3.90;;;;;;;0.69;65.31;100874.78;5058488;28;20072;-79
2022/03/09 00:25:36;;;;;;;7.15;4.15;;;;;;;0.72;65.48;100880.06;5058789;28;20054;-79
2022/03/09 00:28:01;;;;;;;7.75;4.07;;;;;;;0.70;65.39;100873.00;5059593;28;20037;-79
2022/03/09 00:30:27;;;;;;;7.20;3.63;;;;;;;0.71;64.96;100873.06;5059734;28;20032;-79
2022/03/09 00:32:52;;;;;;;7.22;3.70;;;;;;;0.74;65.38;100882.75;5058494;28;20027;-79
2022/03/09 00:35:17;;;;;;;7.32;4.10;;;;;;;0.71;65.49;100894.09;5060343;28;20393;-79
2022/03/09 00:37:43;;;;;;;7.63;4.20;;;;;;;0.74;65.35;100885.38;5060149;28;20501;-78
2022/03/09 00:40:08;;;;;;;7.78;3.85;;;;;;;0.70;65.22;100892.28;5060312;28;20427;-79
2022/03/09 00:42:38;;;;;;;7.90;3.88;;;;;;;0.66;65.42;100888.72;5060877;28;20416;-79
2022/03/09 00:45:05;;;;;;;9.10;3.92;;;;;;;0.64;65.71;100881.66;5060579;28;20043;-79
2022/03/09 00:47:30;;;;;;;5.93;3.72;;;;;;;0.63;66.01;100879.88;5060616;28;20037;-79
2022/03/09 00:49:56;;;;;;;9.05;4.20;;;;;;;0.63;66.53;100880.78;5060167;28;20032;-79
2022/03/09 00:52:21;;;;;;;9.38;4.40;;;;;;;0.41;68.44;100887.34;5059172;28;20025;-79
2022/03/09 00:54:47;;;;;;;9.70;4.63;;;;;;;0.41;68.48;100884.69;5059091;28;20054;-79
2022/03/09 00:57:13;;;;;;;8.18;4.40;;;;;;;0.37;68.97;100885.47;5057463;28;20037;-77
2022/03/09 00:59:39;;;;;;;9.48;4.30;;;;;;;0.35;69.08;100887.19;5059257;28;20025;-79
2022/03/09 01:02:04;;;;;;;7.72;4.00;;;;;;;0.35;68.57;100889.81;5057597;28;20021;-79
2022/03/09 01:04:29;;;;;;;7.75;4.20;;;;;;;0.33;69.00;100898.56;5058367;28;20021;-79
2022/03/09 01:06:55;;;;;;;7.03;4.35;;;;;;;0.37;68.27;100899.50;5057479;28;20025;-79
2022/03/09 01:09:20;;;;;;;8.57;4.10;;;;;;;0.40;68.27;100894.31;5058302;28;20025;-79
2022/03/09 01:11:45;;;;;;;9.48;4.47;;;;;;;0.42;67.68;100894.34;5059400;28;20497;-78
2022/03/09 01:14:11;;;;;;;6.90;4.18;;;;;;;0.37;68.02;100898.59;5059458;28;20025;-79
2022/03/09 01:16:36;;;;;;;8.30;4.47;;;;;;;0.36;68.48;100892.47;5060277;28;20088;-79
2022/03/09 01:19:01;;;;;;;8.45;4.43;;;;;;;0.24;69.16;100887.81;5057415;28;20021;-79
2022/03/09 01:21:26;;;;;;;7.45;4.07;;;;;;;0.21;69.20;100882.50;5058183;28;20153;-79
2022/03/09 01:23:52;;;;;;;8.10;4.40;;;;;;;0.20;69.25;100886.00;5057576;28;20070;-79
2022/03/09 01:26:17;;;;;;;6.63;4.32;;;;;;;0.19;69.08;100889.47;5059025;28;20078;-79
2022/03/09 01:28:42;;;;;;;9.65;4.50;;;;;;;0.18;68.81;100885.09;5057658;28;20025;-78
2022/03/09 01:31:08;;;;;;;7.53;4.22;;;;;;;0.15;69.19;100885.00;5058544;28;20037;-80
2022/03/09 01:33:33;;;;;;;7.88;4.68;;;;;;;0.17;69.27;100875.41;5058835;28;20021;-79
2022/03/09 01:35:58;;;;;;;9.10;5.00;;;;;;;0.15;69.02;100885.00;5056114;28;20025;-78
2022/03/09 01:38:23;;;;;;;8.88;4.32;;;;;;;0.12;69.36;100882.31;5057139;28;20029;-79
2022/03/09 01:40:49;;;;;;;8.48;4.00;;;;;;;0.12;69.29;100871.81;5057217;28;20096;-79
2022/03/09 01:43:14;;;;;;;7.05;3.75;;;;;;;0.16;69.04;100886.75;5056559;28;20517;-79
2022/03/09 01:45:40;;;;;;;6.97;4.38;;;;;;;0.15;68.65;100883.28;5056715;28;20037;-78
2022/03/09 01:48:05;;;;;;;9.43;4.40;;;;;;;0.16;68.88;100879.78;5058569;28;20089;-79
2022/03/09 01:50:31;;;;;;;7.93;3.90;;;;;;;0.13;69.27;100879.69;5058805;28;20021;-77
2022/03/09 01:52:56;;;;;;;8.00;4.65;;;;;;;0.10;69.06;100877.88;5058468;28;20025;-79
2022/03/09 01:55:22;;;;;;;7.85;4.13;;;;;;;0.13;68.74;100878.84;5059121;28;20575;-79
2022/03/09 01:57:47;;;;;;;9.57;4.20;;;;;;;0.13;68.67;100878.84;5059162;28;20037;-79
2022/03/09 02:00:13;;;;;;;8.30;4.35;;;;;;;0.13;68.93;100878.84;5058916;28;20025;-79
2022/03/09 02:02:38;;;;;;;7.57;4.35;;;;;;;0.10;69.00;100874.41;5058605;28;20111;-79
2022/03/09 02:05:04;;;;;;;7.60;3.90;;;;;;;0.05;69.26;100871.66;5058805;28;20024;-80
2022/03/09 02:10:19;;;;;;;8.80;4.25;;;;;;;-0.03;70.23;100868.88;5058292;28;20039;-79
2022/03/09 02:12:44;;;;;;;8.00;4.63;;;;;;;-0.07;70.09;100866.13;5057608;28;20079;-79
2022/03/09 02:15:09;;;;;;;9.18;4.65;;;;;;;-0.12;70.45;100866.91;5057719;28;20013;-79
2022/03/09 02:17:35;;;;;;;6.70;3.83;;;;;;;-0.14;70.84;100868.63;5057256;28;20033;-79
2022/03/09 02:20:00;;;;;;;9.25;4.50;;;;;;;-0.17;71.17;100871.16;5057439;28;20363;-79
2022/03/09 02:22:29;;;;;;;7.75;4.25;;;;;;;-0.21;71.39;100871.94;5056326;28;20017;-79
2022/03/09 02:24:55;;;;;;;7.75;4.18;;;;;;;-0.18;71.09;100874.63;5057958;28;20082;-78
2022/03/09 02:27:23;;;;;;;7.80;4.13;;;;;;;-0.13;71.00;100878.25;5085061;22;20033;-85
2022/03/09 02:30:01;;;;;;;10.82;4.80;;;;;;;-0.12;70.73;100869.53;5095204;28;20409;-84
2022/03/09 02:32:38;;;;;;;6.68;4.18;;;;;;;-0.17;70.72;100865.00;5094886;28;20028;-84
2022/03/09 02:35:13;;;;;;;8.30;4.15;;;;;;;-0.16;71.17;100867.69;5095221;28;20105;-85
2022/03/09 02:37:40;;;;;;;10.52;4.72;;;;;;;-0.17;70.66;100871.16;5095858;28;20047;-83
2022/03/09 02:40:34;;;;;;;8.23;4.07;;;;;;;-0.20;71.58;100873.69;5094358;28;20110;-85
2022/03/09 02:43:16;;;;;;;8.00;3.47;;;;;;;-0.27;72.00;100869.16;5094133;28;20032;-85
2022/03/09 02:46:05;;;;;;;8.90;4.18;;;;;;;-0.28;72.47;100872.63;5094892;28;20020;-85
2022/03/09 02:48:41;;;;;;;10.63;4.43;;;;;;;-0.39;73.16;100870.66;5093483;28;20020;-84
2022/03/09 02:51:30;;;;;;;8.90;5.05;;;;;;;-0.47;73.77;100872.19;5092907;28;20472;-84
2022/03/09 02:53:58;;;;;;;9.93;5.20;;;;;;;-0.52;73.64;100874.72;5094504;28;20040;-84
2022/03/09 02:56:29;;;;;;;9.48;4.88;;;;;;;-0.58;73.84;100883.31;5094065;28;20027;-84
2022/03/09 02:58:59;;;;;;;10.00;4.72;;;;;;;-0.63;74.47;100879.66;5093602;28;20020;-84
2022/03/09 03:01:28;;;;;;;7.10;4.47;;;;;;;-0.68;74.59;100878.66;5095044;28;20107;-85
2022/03/09 03:04:01;;;;;;;8.70;4.70;;;;;;;-0.73;74.72;100870.69;5093549;28;20115;-84
2022/03/09 03:06:27;;;;;;;9.32;4.38;;;;;;;-0.76;75.56;100874.94;5093669;28;20062;-84
2022/03/09 03:08:55;;;;;;;7.00;4.68;;;;;;;-0.81;75.93;100877.44;5092210;28;20123;-85
2022/03/09 03:11:33;;;;;;;11.60;5.57;;;;;;;-0.86;75.83;100884.31;5093489;28;20024;-84
2022/03/09 03:14:05;;;;;;;7.93;4.68;;;;;;;-0.89;76.56;100879.88;5091630;28;20032;-85
2022/03/09 03:16:36;;;;;;;12.13;5.13;;;;;;;-0.97;76.82;100870.91;5093830;28;20045;-84
2022/03/09 03:19:11;;;;;;;9.20;4.43;;;;;;;-0.92;76.77;100872.81;5092419;28;20051;-84
2022/03/09 03:21:37;;;;;;;11.18;4.75;;;;;;;-0.95;77.51;100883.19;5096840;28;20035;-84
2022/03/09 03:24:02;;;;;;;8.05;4.88;;;;;;;-0.99;77.53;100880.47;5101602;28;20024;-85
2022/03/09 03:26:28;;;;;;;10.40;5.05;;;;;;;-1.02;78.68;100887.41;5104158;28;20027;-84
2022/03/09 03:28:59;;;;;;;10.10;5.30;;;;;;;-1.06;78.09;100879.41;5103594;28;20043;-85
2022/03/09 03:31:29;;;;;;;9.30;4.90;;;;;;;-1.11;79.68;100886.25;5095522;28;20016;-84
2022/03/09 03:34:00;;;;;;;8.70;5.22;;;;;;;-1.16;79.52;100884.38;5092065;28;20038;-85
2022/03/09 03:36:31;;;;;;;9.65;5.38;;;;;;;-1.36;80.46;100884.72;5095104;28;20056;-86
2022/03/09 03:39:02;;;;;;;11.05;5.55;;;;;;;-1.41;81.82;100880.19;5094635;28;20047;-86
2022/03/09 03:41:41;;;;;;;8.57;4.95;;;;;;;-1.51;83.95;100884.25;5095132;28;20475;-86
2022/03/09 03:44:18;;;;;;;17.42;6.45;;;;;;;-1.55;84.39;100885.91;5094541;28;20115;-85
2022/03/09 03:46:47;;;;;;;10.75;5.68;;;;;;;-1.63;84.86;100890.03;5093953;28;20021;-84
2022/03/09 03:49:15;;;;;;;11.63;5.50;;;;;;;-1.72;85.62;100886.28;5093088;28;20027;-84
2022/03/09 03:51:46;;;;;;;12.65;6.00;;;;;;;-1.77;86.80;100893.13;5094031;28;20024;-85
2022/03/09 03:54:21;;;;;;;10.63;6.38;;;;;;;-1.92;89.10;100891.81;5093991;28;20113;-85
2022/03/09 03:56:51;;;;;;;12.02;5.85;;;;;;;-2.02;90.04;100897.59;5093790;28;20385;-84
2022/03/09 03:59:25;;;;;;;13.70;5.80;;;;;;;-1.97;89.78;100895.13;5093439;28;20499;-84
2022/03/09 04:01:53;;;;;;;9.57;5.00;;;;;;;-1.97;89.10;100898.63;5095692;28;20020;-84
2022/03/09 04:04:24;;;;;;;12.13;5.35;;;;;;;-2.03;89.58;100895.81;5097308;28;20026;-84
2022/03/09 04:07:03;;;;;;;7.75;4.57;;;;;;;-2.03;90.09;100901.03;5095577;28;20020;-84
2022/03/09 04:09:38;;;;;;;10.30;4.95;;;;;;;-2.02;90.01;100908.97;5096243;28;20031;-84
2022/03/09 04:12:07;;;;;;;9.88;4.80;;;;;;;-2.06;90.22;100903.59;5096130;28;20040;-84
2022/03/09 04:14:38;;;;;;;10.20;5.40;;;;;;;-2.03;89.92;100911.50;5095366;28;20039;-84
2022/03/09 04:17:09;;;;;;;10.98;5.93;;;;;;;-2.05;90.27;100914.09;5096403;28;20016;-84
2022/03/09 04:19:50;;;;;;;9.10;5.20;;;;;;;-2.04;89.74;100909.75;5096316;28;20024;-83
2022/03/09 04:22:15;;;;;;;10.02;5.10;;;;;;;-2.05;89.59;100908.84;5097747;28;20081;-84
2022/03/09 04:24:44;;;;;;;11.60;4.93;;;;;;;-2.01;89.14;100909.84;5099862;28;20023;-85
2022/03/09 04:27:12;;;;;;;11.52;5.00;;;;;;;-1.91;88.68;100903.19;5099154;28;20027;-85
2022/03/09 04:29:42;;;;;;;9.65;5.22;;;;;;;-1.85;88.00;100902.44;5098819;28;20024;-85
2022/03/09 04:32:23;;;;;;;9.27;4.88;;;;;;;-1.80;87.10;100903.50;5097574;28;20115;-84
2022/03/09 04:34:53;;;;;;;10.02;4.70;;;;;;;-1.70;86.06;100905.53;5097016;28;20024;-84
2022/03/09 04:37:34;;;;;;;9.95;5.10;;;;;;;-1.58;85.20;100906.78;5095575;28;20016;-84
2022/03/09 04:40:04;;;;;;;9.98;4.97;;;;;;;-1.50;84.19;100902.66;5095485;28;20020;-84
2022/03/09 04:42:51;;;;;;;12.10;5.15;;;;;;;-1.48;84.83;100908.84;5096945;28;20028;-84
2022/03/09 04:45:23;;;;;;;9.13;5.10;;;;;;;-1.44;83.83;100912.41;5097154;28;20040;-84
2022/03/09 04:47:59;;;;;;;9.73;4.85;;;;;;;-1.43;83.46;100913.31;5102382;28;20016;-84
2022/03/09 04:50:27;;;;;;;12.27;4.47;;;;;;;-1.43;83.25;100913.31;5108334;28;20057;-87
2022/03/09 04:52:53;;;;;;;10.95;5.03;;;;;;;-1.43;83.27;100908.06;5106195;28;20016;-84
2022/03/09 04:55:26;;;;;;;11.38;5.20;;;;;;;-1.42;83.72;100915.09;5105241;28;20020;-84
2022/03/09 04:58:01;;;;;;;11.05;5.30;;;;;;;-1.46;83.89;100909.75;5103211;28;20036;-84
2022/03/09 05:00:30;;;;;;;10.70;4.72;;;;;;;-1.49;83.49;100909.66;5098532;28;20024;-84
2022/03/09 05:03:01;;;;;;;10.95;5.22;;;;;;;-1.53;84.20;100907.81;5098788;28;20028;-84
2022/03/09 05:05:29;;;;;;;10.15;5.40;;;;;;;-1.51;83.70;100905.22;5100044;28;20042;-83
2022/03/09 05:08:01;;;;;;;10.18;5.55;;;;;;;-1.48;83.68;100898.34;5097259;28;20423;-83
2022/03/09 05:10:29;;;;;;;11.00;5.22;;;;;;;-1.45;83.26;100902.78;5094550;28;20020;-82
2022/03/09 05:13:07;;;;;;;12.88;5.25;;;;;;;-1.44;83.64;100907.16;5094868;28;20032;-83
2022/03/09 05:15:33;;;;;;;10.02;5.20;;;;;;;-1.50;83.64;100901.78;5096142;28;20024;-83
2022/03/09 05:18:07;;;;;;;7.70;4.20;;;;;;;-1.51;83.83;100906.13;5096799;28;20027;-82
2022/03/09 05:20:52;;;;;;;10.85;4.80;;;;;;;-1.51;83.15;100906.13;5095166;28;20030;-83
2022/03/09 05:23:17;;;;;;;8.65;4.63;;;;;;;-1.46;83.30;100909.75;5096462;28;20019;-83
2022/03/09 05:25:48;;;;;;;12.15;5.05;;;;;;;-1.55;84.15;100909.50;5095741;28;20028;-83
2022/03/09 05:31:08;;;;;;;10.00;5.28;;;;;;;-1.84;86.57;100906.88;5066929;28;20047;-83
2022/03/09 05:33:39;;;;;;;15.20;5.93;;;;;;;-1.84;86.86;100907.75;5094176;28;20067;-83
2022/03/09 05:36:09;;;;;;;13.45;5.53;;;;;;;-1.93;87.26;100907.44;5094936;28;20031;-83
2022/03/09 05:38:35;;;;;;;8.55;4.90;;;;;;;-1.93;87.29;100903.09;5094845;28;20035;-82
2022/03/09 05:41:02;;;;;;;9.57;5.03;;;;;;;-1.94;87.57;100905.69;5095724;28;20027;-83
2022/03/09 05:43:30;;;;;;;13.93;5.18;;;;;;;-1.96;87.32;100895.16;5094758;28;20020;-83
2022/03/09 05:46:07;;;;;;;11.27;5.15;;;;;;;-1.98;87.38;100898.56;5094110;28;20502;-83
2022/03/09 05:48:37;;;;;;;9.23;5.05;;;;;;;-1.99;87.45;100902.03;5093979;28;20036;-82
2022/03/09 05:51:08;;;;;;;12.43;5.20;;;;;;;-2.00;87.90;100906.38;5094723;28;20028;-83
2022/03/09 05:53:39;;;;;;;15.10;7.40;;;;;;;-2.03;87.83;100909.78;5096591;28;20023;-83
2022/03/09 05:56:10;;;;;;;12.88;6.05;;;;;;;-2.06;88.41;100901.81;5094092;28;20476;-83
2022/03/09 05:58:35;;;;;;;9.82;5.05;;;;;;;-2.04;88.51;100914.97;5094736;28;20081;-83
2022/03/09 06:01:03;;;;;;;13.55;5.93;;;;;;;-2.08;88.87;100911.38;5094910;28;20039;-83
2022/03/09 06:03:29;;;;;;;11.98;5.93;;;;;;;-2.10;89.00;100917.38;5093872;28;20119;-83
2022/03/09 06:05:57;;;;;;;12.15;5.50;;;;;;;-2.15;89.88;100912.91;5096531;28;20028;-80
2022/03/09 06:08:22;;;;;;;10.00;5.72;;;;;;;-2.15;89.86;100912.91;5095587;28;20058;-82
2022/03/09 06:10:55;;;;;;;12.35;6.03;;;;;;;-2.10;88.90;100922.63;5094083;28;20024;-80
2022/03/09 06:13:21;;;;;;;13.57;5.53;;;;;;;-2.10;88.77;100926.13;5095642;28;20080;-84
2022/03/09 06:15:54;;;;;;;12.40;5.47;;;;;;;-2.13;89.83;100929.53;5095215;28;20020;-82
2022/03/09 06:18:26;;;;;;;9.60;5.40;;;;;;;-2.15;90.15;100928.59;5092661;28;20412;-83
2022/03/09 06:20:51;;;;;;;11.10;6.18;;;;;;;-2.16;91.30;100921.59;5095247;28;20027;-83
2022/03/09 06:23:20;;;;;;;11.13;5.28;;;;;;;-2.25;91.77;100927.41;5087093;28;20024;-83
2022/03/09 06:25:46;;;;;;;9.48;5.07;;;;;;;-2.24;91.63;100923.03;5081284;28;20171;-84
2022/03/09 06:28:11;;;;;;;13.18;6.03;;;;;;;-2.28;92.45;100921.19;5086223;28;20548;-85
2022/03/09 06:30:46;;;;;;;12.48;5.20;;;;;;;-2.37;93.91;100917.41;5097610;28;20027;-85
2022/03/09 06:33:17;;;;;;;12.95;5.93;;;;;;;-2.43;94.76;100925.06;5097405;28;20048;-85
2022/03/09 06:35:46;;;;;;;14.23;5.60;;;;;;;-2.38;95.22;100925.22;5095456;28;20024;-84
2022/03/09 06:38:13;;;;;;;11.77;5.90;;;;;;;-2.39;96.11;100934.78;5095171;28;20476;-84
2022/03/09 06:40:45;;;;;;;11.45;5.97;;;;;;;-2.30;95.07;100922.88;5095236;28;20503;-83
2022/03/09 06:43:16;;;;;;;11.57;5.95;;;;;;;-2.29;95.04;100924.63;5094835;28;20030;-85
2022/03/09 06:45:47;;;;;;;12.48;5.88;;;;;;;-2.25;94.78;100916.94;5095896;28;20032;-84
2022/03/09 06:48:25;;;;;;;11.70;5.53;;;;;;;-2.26;95.40;100924.72;5094567;28;20550;-83
2022/03/09 06:51:01;;;;;;;13.20;6.57;;;;;;;-2.28;96.82;100936.88;5094880;28;20067;-84
2022/03/09 06:53:34;;;;;;;11.18;5.50;;;;;;;-2.23;97.38;100940.53;5092907;28;20028;-86
2022/03/09 06:56:40;;;;;;;14.07;6.57;;;;;;;-2.15;97.42;100932.94;5094146;28;20043;-86
2022/03/09 06:59:00;;;;;;;9.90;5.68;;;;;;;-2.05;95.54;100927.16;5091261;28;20031;-86
2022/03/09 07:01:28;;;;;;;13.85;6.38;;;;;;;-1.82;93.82;100936.59;5092458;28;20027;-86
2022/03/09 07:04:17;;;;;;;11.63;5.95;;;;;;;-1.65;93.13;100938.88;5093404;28;20024;-85
2022/03/09 07:06:58;;;;;;;14.25;6.32;;;;;;;-1.54;92.99;100942.69;5094550;28;20110;-85
2022/03/09 07:09:34;;;;;;;12.05;6.07;;;;;;;-1.46;92.16;100941.19;5092941;28;20032;-85
2022/03/09 07:12:40;;;;;;;14.45;6.35;;;;;;;-1.34;92.30;100942.44;5093371;28;20119;-85
2022/03/09 07:15:18;;;;;;;14.52;5.93;;;;;;;-1.29;91.75;100939.94;5092621;28;20032;-85
2022/03/09 07:17:54;;;;;;;10.98;5.47;;;;;;;-1.16;91.15;100954.28;5094655;28;20379;-85
2022/03/09 07:20:23;;;;;;;11.43;6.28;;;;;;;-1.09;91.33;100951.00;5095535;28;20024;-86
2022/03/09 07:22:49;;;;;;;14.80;6.68;;;;;;;-1.00;90.33;100957.34;5096468;28;20442;-86
2022/03/09 07:25:14;;;;;;;12.90;6.82;;;;;;;-0.90;90.05;100951.50;5097502;28;20017;-86
2022/03/09 07:27:43;;;;;;;12.60;6.95;;;;;;;-0.81;90.49;100950.88;5096670;28;20035;-85
2022/03/09 07:30:12;;;;;;;14.32;6.03;;;;;;;-0.68;89.64;100946.88;5096906;28;20492;-86
2022/03/09 07:32:39;;;;;;;14.38;6.03;;;;;;;-0.40;86.82;100950.22;5097356;28;20024;-86
2022/03/09 07:35:05;;;;;;;14.57;6.22;;;;;;;-0.30;85.85;100953.97;5097495;28;20094;-85
2022/03/09 07:37:30;;;;;;;12.20;5.90;;;;;;;-0.14;85.72;100952.63;5098032;28;20020;-85
2022/03/09 07:39:58;;;;;;;13.88;6.22;;;;;;;-0.05;84.75;100948.47;5100079;28;20050;-86
2022/03/09 07:42:26;;;;;;;13.57;6.93;;;;;;;0.16;84.12;100955.06;5100983;28;20027;-86
2022/03/09 07:44:51;;;;;;;12.27;6.47;;;;;;;0.32;82.55;100953.69;5100225;28;20049;-85
2022/03/09 07:47:17;;;;;;;14.50;6.35;;;;;;;0.53;81.89;100953.28;5100105;28;20028;-86
2022/03/09 07:49:45;;;;;;;13.38;6.75;;;;;;;0.72;80.30;100958.94;5102801;28;20020;-85
2022/03/09 07:52:11;;;;;;;13.73;6.78;;;;;;;0.89;80.07;100955.78;5100578;28;20027;-85
2022/03/09 07:54:36;;;;;;;14.05;6.25;;;;;;;1.00;78.92;100959.53;5101615;28;20396;-86
2022/03/09 07:57:02;;;;;;;12.77;6.43;;;;;;;1.14;78.40;100955.38;5100634;28;20016;-86
2022/03/09 07:59:28;;;;;;;13.38;6.75;;;;;;;1.26;77.01;100954.75;5102966;28;20035;-86
2022/03/09 08:02:00;;;;;;;13.13;6.60;;;;;;;1.35;76.42;100960.19;5101110;28;20024;-86
2022/03/09 08:04:26;;;;;;;12.75;6.47;;;;;;;1.38;77.95;100967.25;5102770;28;20506;-86
2022/03/09 08:06:56;;;;;;;20.15;7.35;;;;;;;1.37;80.64;100965.47;5100366;28;20032;-86
2022/03/09 08:09:24;;;;;;;15.65;7.35;;;;;;;1.34;82.57;100963.69;5099014;28;20060;-85
2022/03/09 08:11:50;;;;;;;16.42;7.15;;;;;;;1.56;80.11;100969.34;5096787;28;20473;-85
2022/03/09 08:14:15;;;;;;;12.57;6.47;;;;;;;1.69;77.45;100964.31;5097732;28;20111;-86
2022/03/09 08:16:43;;;;;;;13.88;6.57;;;;;;;1.76;76.28;100966.19;5100624;28;20475;-86
2022/03/09 08:19:09;;;;;;;13.38;7.28;;;;;;;1.91;75.09;100962.06;5099702;28;20020;-86
2022/03/09 08:21:38;;;;;;;15.23;7.60;;;;;;;1.96;75.72;100960.38;5100221;28;20069;-86
2022/03/09 08:24:08;;;;;;;14.63;7.65;;;;;;;1.95;77.73;100972.66;5099409;28;20610;-86
2022/03/09 08:26:33;;;;;;;10.77;6.28;;;;;;;1.99;77.17;100968.31;5100476;28;20035;-86
2022/03/09 08:28:59;;;;;;;14.05;7.20;;;;;;;1.96;77.29;100958.63;5101819;28;20032;-87
2022/03/09 08:31:26;;;;;;;13.10;6.97;;;;;;;2.05;77.63;100959.63;5106472;28;20024;-87
2022/03/09 08:33:55;;;;;;;12.20;6.80;;;;;;;2.20;77.47;100966.91;5105294;28;20402;-87
2022/03/09 08:36:25;;;;;;;14.10;7.15;;;;;;;2.34;77.56;100964.50;5105132;28;20024;-87
2022/03/09 08:38:51;;;;;;;12.63;7.25;;;;;;;2.41;74.94;100976.00;5106054;28;20031;-87
2022/03/09 08:41:16;;;;;;;10.50;6.53;;;;;;;2.51;74.24;100972.63;5106273;28;20023;-87
2022/03/09 08:43:43;;;;;;;13.93;6.90;;;;;;;2.64;75.27;100978.06;5104780;28;20051;-86
2022/03/09 08:46:11;;;;;;;13.35;7.45;;;;;;;2.78;73.34;100973.88;5096574;28;20055;-85
2022/03/09 08:48:40;;;;;;;12.80;6.93;;;;;;;2.90;72.77;100980.19;5095764;28;20035;-86
2022/03/09 08:51:12;;;;;;;13.52;7.03;;;;;;;2.98;71.94;100983.81;5097965;28;20393;-84
2022/03/09 08:53:51;;;;;;;12.60;6.60;;;;;;;3.24;71.07;100982.38;5100058;28;20396;-86
2022/03/09 08:56:32;;;;;;;14.25;6.85;;;;;;;3.37;70.66;100980.75;5102174;28;20028;-86
2022/03/09 08:59:04;;;;;;;10.23;6.47;;;;;;;3.46;68.58;100975.56;5099449;28;20557;-86
2022/03/09 09:01:49;;;;;;;16.50;7.47;;;;;;;3.74;68.46;100990.78;5101530;28;20038;-86
2022/03/09 09:04:22;;;;;;;12.90;7.07;;;;;;;3.89;67.86;100984.75;5100154;28;20016;-87
2022/03/09 09:06:53;;;;;;;11.35;6.75;;;;;;;4.08;65.53;100990.22;5102197;28;20020;-87
2022/03/09 09:09:27;;;;;;;15.50;7.10;;;;;;;4.48;63.98;100991.41;5101969;28;20491;-87
2022/03/09 09:11:54;;;;;;;12.23;7.32;;;;;;;4.83;63.48;100989.84;5101604;28;20041;-86
2022/03/09 09:14:22;;;;;;;11.23;7.00;;;;;;;5.28;61.48;100991.81;5099923;28;20032;-86
2022/03/09 09:17:13;;;;;;;11.98;6.90;;;;;;;5.65;59.71;100992.75;5097937;28;20026;-87
2022/03/09 09:20:20;;;;;;;10.43;6.78;;;;;;;5.79;57.41;100988.38;5098154;28;20058;-86
2022/03/09 09:23:07;;;;;;;;;;;;;;;;;;;;;
2022/03/09 09:26:03;;;;;;;10.40;7.05;;;;;;;5.92;56.25;101001.66;5091418;28;20027;-86
2022/03/09 09:28:58;;;;;;;15.80;7.05;;;;;;;6.37;54.46;100996.34;5095656;28;20093;-86
2022/03/09 09:31:23;;;;;;;11.43;7.13;;;;;;;6.77;52.64;100997.19;5094295;28;20024;-87
2022/03/09 09:33:48;;;;;;;13.38;7.18;;;;;;;6.91;52.91;101004.19;5097543;28;20393;-86
2022/03/09 09:36:25;;;;;;;11.93;7.30;;;;;;;7.24;52.38;101004.09;5097652;28;20032;-87
2022/03/09 09:39:04;;;;;;;11.52;6.75;;;;;;;7.30;49.94;100993.44;5096236;28;20035;-86
2022/03/09 09:41:52;;;;;;;11.05;6.40;;;;;;;7.54;49.31;100995.97;5097158;28;20098;-86
2022/03/09 09:44:49;;;;;;;12.15;6.80;;;;;;;7.57;48.79;100996.84;5096810;28;20028;-86
2022/03/09 09:47:22;;;;;;;12.25;6.72;;;;;;;7.78;49.58;101000.22;5096997;28;20142;-86
2022/03/09 09:49:57;;;;;;;;;;;;;;;8.09;46.98;100996.44;5099394;28;20024;-86
2022/03/09 09:52:40;;;;;;;;;;;;;;;8.16;46.19;100999.97;5097272;28;19908;-87
2022/03/09 09:55:43;;;;;;;14.63;7.05;;;;;;;8.12;45.30;101000.84;5090227;28;19980;-86
2022/03/09 09:58:41;;;;;;;13.18;6.93;;;;;;;8.47;45.73;100993.47;5035802;28;20486;-87
2022/03/09 10:02:31;;;;;;;11.55;7.15;;;;;;;8.93;45.27;100997.44;5094428;28;20044;-86
2022/03/09 10:04:50;;;;;;;10.90;6.93;;;;;;;9.13;44.53;100998.97;5088631;22;20085;-80
2022/03/09 10:07:17;;;;;;;10.30;6.38;;;;;;;9.46;44.25;100995.88;5052201;28;20116;-79
2022/03/09 10:09:43;;;;;;;11.80;6.40;;;;;;;9.32;42.39;100989.88;5054461;28;20052;-78
2022/03/09 10:12:10;;;;;;;9.52;6.20;;;;;;;9.26;43.66;100983.72;5056196;28;20117;-79
2022/03/09 10:14:42;;;;;;;10.07;5.95;;;;;;;9.63;43.33;100981.44;5056575;28;20023;-78
2022/03/09 10:17:10;;;;;;;11.25;6.20;;;;;;;9.64;42.59;100988.53;5055403;28;20493;-78
2022/03/09 10:19:39;;;;;;;12.00;6.60;;;;;;;9.63;42.43;100985.88;5055333;28;20032;-78
2022/03/09 10:22:29;;;;;;;11.20;6.68;;;;;;;9.32;41.54;100979.22;5055581;28;20067;-78
2022/03/09 10:24:57;;;;;;;10.60;5.95;;;;;;;9.35;41.75;100976.50;5058836;28;20020;-78
2022/03/09 10:27:45;;;;;;;10.38;6.38;;;;;;;9.61;42.03;100978.78;5056880;28;20466;-79
2022/03/09 10:30:30;;;;;;;11.50;6.40;;;;;;;9.80;41.60;100977.63;5060279;28;20021;-79
2022/03/09 10:33:00;;;;;;;11.80;6.95;;;;;;;9.92;41.77;100972.09;5060607;28;20087;-79
2022/03/09 10:35:29;;;;;;;11.05;6.82;;;;;;;9.84;41.86;100971.34;5057002;28;20020;-81
2022/03/09 10:37:54;;;;;;;9.23;6.32;;;;;;;9.82;40.34;100970.47;5057195;28;20029;-80
2022/03/09 10:40:21;;;;;;;10.88;6.50;;;;;;;10.05;40.72;100963.91;5057755;28;20021;-78
2022/03/09 10:42:47;;;;;;;9.00;5.97;;;;;;;9.91;41.76;100967.69;5056900;28;20477;-80
2022/03/09 10:45:17;;;;;;;10.23;6.28;;;;;;;10.40;41.22;100972.19;5056643;28;20074;-80
2022/03/09 10:47:48;;;;;;;10.70;6.43;;;;;;;10.48;39.71;100969.38;5058892;28;20021;-79
2022/03/09 10:50:33;;;;;;;11.10;7.05;;;;;;;10.61;40.09;100968.28;5060652;28;20032;-80
2022/03/09 10:53:00;;;;;;;10.88;5.88;;;;;;;10.52;36.91;100971.09;5057556;28;20074;-79
2022/03/09 10:55:32;;;;;;;10.00;6.13;;;;;;;10.65;38.25;100968.19;5056639;28;20089;-78
2022/03/09 10:58:16;;;;;;;8.50;5.90;;;;;;;10.62;37.09;100961.13;5057921;28;20021;-79
2022/03/09 11:00:44;;;;;;;9.75;5.75;;;;;;;10.91;37.42;100957.00;5057327;28;20037;-80
2022/03/09 11:03:13;;;;;;;8.55;5.63;;;;;;;10.80;36.36;100959.00;5055252;28;20025;-79
2022/03/09 11:05:56;;;;;;;10.00;5.60;;;;;;;10.82;34.58;100958.03;5060219;28;20048;-79
2022/03/09 11:08:27;;;;;;;8.55;5.32;;;;;;;11.40;35.59;100953.28;5058818;28;20473;-79
2022/03/09 11:10:55;;;;;;;8.85;5.80;;;;;;;11.64;34.69;100956.31;5067929;28;20075;-81
2022/03/09 11:13:22;;;;;;;11.02;6.05;;;;;;;11.74;34.61;100959.63;5066238;28;20028;-78
2022/03/09 11:15:47;;;;;;;9.00;5.63;;;;;;;11.75;34.49;100960.53;5064715;28;20037;-78
2022/03/09 11:18:21;;;;;;;11.20;5.70;;;;;;;11.67;34.73;100950.00;5062077;28;20092;-78
2022/03/09 11:20:52;;;;;;;11.02;6.10;;;;;;;11.96;35.27;100956.41;5062483;28;20374;-78
2022/03/09 11:23:18;;;;;;;9.30;6.00;;;;;;;11.84;36.13;100953.16;5061930;28;20555;-78
2022/03/09 11:25:56;;;;;;;9.77;5.70;;;;;;;12.06;33.96;100951.75;5058326;28;20025;-79
2022/03/09 11:28:29;;;;;;;9.43;6.10;;;;;;;12.03;33.81;100946.47;5058469;28;20588;-78
2022/03/09 11:30:56;;;;;;;9.32;5.55;;;;;;;12.33;33.04;100946.59;5059884;28;20064;-77
2022/03/09 11:33:43;;;;;;;10.35;6.15;;;;;;;12.83;34.28;100950.56;5064100;28;20033;-78
2022/03/09 11:36:20;;;;;;;12.30;6.32;;;;;;;13.00;34.42;100948.31;5063679;28;20033;-78
2022/03/09 11:38:48;;;;;;;10.05;6.43;;;;;;;11.91;33.97;100943.16;5063532;28;20021;-78
2022/03/09 11:41:24;;;;;;;8.80;5.95;;;;;;;12.76;33.29;100940.94;5062648;28;20028;-78
2022/03/09 11:43:51;;;;;;;11.68;6.50;;;;;;;13.04;33.45;100945.50;5062045;28;20131;-78
2022/03/09 11:46:17;;;;;;;9.23;5.38;;;;;;;13.17;34.56;100947.81;5059867;28;20032;-77
2022/03/09 11:48:50;;;;;;;10.32;6.50;;;;;;;12.78;33.53;100941.78;5059542;28;20128;-78
2022/03/09 11:51:16;;;;;;;12.68;6.15;;;;;;;12.42;33.78;100934.72;5060210;28;20033;-77